sensor_id;sensor_type;location;lat;lon;timestamp;P1;durP1;ratioP1;P2;durP2;ratioP2
43014;SDS011;28637;50.554;7.032;2023-02-07T00:00:11;8.10;;;3.33;;
43014;SDS011;28637;50.554;7.032;2023-02-07T00:05:14;9.00;;;3.35;;
43014;SDS011;28637;50.554;7.032;2023-02-07T00:10:15;10.52;;;3.72;;
43014;SDS011;28637;50.554;7.032;2023-02-07T00:15:15;13.83;;;4.47;;
43014;SDS011;28637;50.554;7.032;2023-02-07T00:20:16;10.97;;;4.30;;
43014;SDS011;28637;50.554;7.032;2023-02-07T00:25:17;9.60;;;4.10;;
43014;SDS011;28637;50.554;7.032;2023-02-07T00:30:18;11.90;;;3.73;;
43014;SDS011;28637;50.554;7.032;2023-02-07T00:35:19;8.53;;;3.93;;
43014;SDS011;28637;50.554;7.032;2023-02-07T00:40:20;7.00;;;3.93;;
43014;SDS011;28637;50.554;7.032;2023-02-07T00:45:21;8.97;;;4.00;;
43014;SDS011;28637;50.554;7.032;2023-02-07T00:50:21;8.40;;;3.97;;
43014;SDS011;28637;50.554;7.032;2023-02-07T00:55:22;8.17;;;3.60;;
43014;SDS011;28637;50.554;7.032;2023-02-07T01:00:23;9.20;;;3.87;;
43014;SDS011;28637;50.554;7.032;2023-02-07T01:05:23;7.10;;;3.90;;
43014;SDS011;28637;50.554;7.032;2023-02-07T01:10:24;8.47;;;4.10;;
43014;SDS011;28637;50.554;7.032;2023-02-07T01:15:25;7.63;;;3.53;;
43014;SDS011;28637;50.554;7.032;2023-02-07T01:20:27;9.13;;;3.97;;
43014;SDS011;28637;50.554;7.032;2023-02-07T01:25:28;6.25;;;3.75;;
43014;SDS011;28637;50.554;7.032;2023-02-07T01:30:28;12.20;;;3.73;;
43014;SDS011;28637;50.554;7.032;2023-02-07T01:35:30;7.60;;;3.10;;
43014;SDS011;28637;50.554;7.032;2023-02-07T01:40:34;7.70;;;3.50;;
43014;SDS011;28637;50.554;7.032;2023-02-07T01:45:36;7.30;;;3.33;;
43014;SDS011;28637;50.554;7.032;2023-02-07T01:50:39;5.55;;;3.22;;
43014;SDS011;28637;50.554;7.032;2023-02-07T01:55:42;6.18;;;2.80;;
43014;SDS011;28637;50.554;7.032;2023-02-07T02:00:45;5.90;;;3.08;;
43014;SDS011;28637;50.554;7.032;2023-02-07T02:05:47;3.88;;;2.42;;
43014;SDS011;28637;50.554;7.032;2023-02-07T02:10:58;4.90;;;2.58;;
43014;SDS011;28637;50.554;7.032;2023-02-07T02:16:11;4.40;;;2.38;;
43014;SDS011;28637;50.554;7.032;2023-02-07T02:42:54;5.22;;;2.88;;
43014;SDS011;28637;50.554;7.032;2023-02-07T02:48:13;3.80;;;2.50;;
43014;SDS011;28637;50.554;7.032;2023-02-07T02:53:14;4.00;;;2.60;;
43014;SDS011;28637;50.554;7.032;2023-02-07T02:58:20;6.70;;;2.72;;
43014;SDS011;28637;50.554;7.032;2023-02-07T03:14:16;4.30;;;2.50;;
43014;SDS011;28637;50.554;7.032;2023-02-07T03:19:44;4.38;;;2.50;;
43014;SDS011;28637;50.554;7.032;2023-02-07T03:24:53;4.60;;;2.55;;
43014;SDS011;28637;50.554;7.032;2023-02-07T03:29:57;5.82;;;2.80;;
43014;SDS011;28637;50.554;7.032;2023-02-07T03:35:08;6.70;;;2.75;;
43014;SDS011;28637;50.554;7.032;2023-02-07T03:45:25;5.50;;;2.33;;
43014;SDS011;28637;50.554;7.032;2023-02-07T03:50:26;6.27;;;2.60;;
43014;SDS011;28637;50.554;7.032;2023-02-07T03:55:27;5.40;;;2.60;;
43014;SDS011;28637;50.554;7.032;2023-02-07T04:00:28;3.33;;;2.07;;
43014;SDS011;28637;50.554;7.032;2023-02-07T04:05:28;6.77;;;2.17;;
43014;SDS011;28637;50.554;7.032;2023-02-07T04:10:29;5.13;;;2.60;;
43014;SDS011;28637;50.554;7.032;2023-02-07T04:15:30;3.67;;;2.33;;
43014;SDS011;28637;50.554;7.032;2023-02-07T04:20:30;4.53;;;2.40;;
43014;SDS011;28637;50.554;7.032;2023-02-07T04:25:31;5.63;;;2.50;;
43014;SDS011;28637;50.554;7.032;2023-02-07T04:30:32;6.27;;;3.00;;
43014;SDS011;28637;50.554;7.032;2023-02-07T04:35:32;7.07;;;2.80;;
43014;SDS011;28637;50.554;7.032;2023-02-07T04:40:33;5.87;;;2.70;;
43014;SDS011;28637;50.554;7.032;2023-02-07T04:45:34;7.20;;;2.87;;
43014;SDS011;28637;50.554;7.032;2023-02-07T04:50:34;3.77;;;2.27;;
43014;SDS011;28637;50.554;7.032;2023-02-07T04:55:35;2.67;;;1.80;;
43014;SDS011;28637;50.554;7.032;2023-02-07T05:00:36;3.60;;;1.70;;
43014;SDS011;28637;50.554;7.032;2023-02-07T05:05:37;2.93;;;1.80;;
43014;SDS011;28637;50.554;7.032;2023-02-07T05:10:39;3.38;;;1.83;;
43014;SDS011;28637;50.554;7.032;2023-02-07T05:15:40;2.63;;;1.67;;
43014;SDS011;28637;50.554;7.032;2023-02-07T05:20:42;5.07;;;2.30;;
43014;SDS011;28637;50.554;7.032;2023-02-07T05:25:43;6.15;;;2.78;;
43014;SDS011;28637;50.554;7.032;2023-02-07T05:30:43;5.67;;;2.47;;
43014;SDS011;28637;50.554;7.032;2023-02-07T05:35:44;4.27;;;2.23;;
43014;SDS011;28637;50.554;7.032;2023-02-07T05:40:46;2.60;;;1.80;;
43014;SDS011;28637;50.554;7.032;2023-02-07T05:45:47;3.53;;;1.98;;
43014;SDS011;28637;50.554;7.032;2023-02-07T05:50:48;3.30;;;1.93;;
43014;SDS011;28637;50.554;7.032;2023-02-07T05:55:52;6.67;;;2.10;;
43014;SDS011;28637;50.554;7.032;2023-02-07T06:00:53;2.60;;;1.63;;
43014;SDS011;28637;50.554;7.032;2023-02-07T06:05:54;3.85;;;1.80;;
43014;SDS011;28637;50.554;7.032;2023-02-07T06:10:55;3.20;;;2.00;;
43014;SDS011;28637;50.554;7.032;2023-02-07T06:15:55;4.77;;;2.13;;
43014;SDS011;28637;50.554;7.032;2023-02-07T06:20:57;2.67;;;1.80;;
43014;SDS011;28637;50.554;7.032;2023-02-07T06:30:59;5.47;;;2.72;;
43014;SDS011;28637;50.554;7.032;2023-02-07T06:35:59;5.67;;;2.73;;
43014;SDS011;28637;50.554;7.032;2023-02-07T06:41:00;9.83;;;3.73;;
43014;SDS011;28637;50.554;7.032;2023-02-07T06:46:01;8.10;;;3.67;;
43014;SDS011;28637;50.554;7.032;2023-02-07T06:51:02;10.03;;;3.70;;
43014;SDS011;28637;50.554;7.032;2023-02-07T06:56:03;10.10;;;4.50;;
43014;SDS011;28637;50.554;7.032;2023-02-07T07:01:03;18.30;;;4.77;;
43014;SDS011;28637;50.554;7.032;2023-02-07T07:06:04;7.37;;;4.37;;
43014;SDS011;28637;50.554;7.032;2023-02-07T07:11:05;7.27;;;3.50;;
43014;SDS011;28637;50.554;7.032;2023-02-07T07:16:06;6.40;;;2.87;;
43014;SDS011;28637;50.554;7.032;2023-02-07T07:21:06;3.87;;;2.53;;
43014;SDS011;28637;50.554;7.032;2023-02-07T07:26:07;8.07;;;4.33;;
43014;SDS011;28637;50.554;7.032;2023-02-07T07:31:08;5.90;;;3.40;;
43014;SDS011;28637;50.554;7.032;2023-02-07T07:36:09;4.40;;;2.53;;
43014;SDS011;28637;50.554;7.032;2023-02-07T07:41:09;6.37;;;3.60;;
43014;SDS011;28637;50.554;7.032;2023-02-07T07:46:10;31.53;;;11.77;;
43014;SDS011;28637;50.554;7.032;2023-02-07T07:51:11;29.73;;;9.37;;
43014;SDS011;28637;50.554;7.032;2023-02-07T07:56:12;31.47;;;10.20;;
43014;SDS011;28637;50.554;7.032;2023-02-07T08:01:13;9.17;;;4.83;;
43014;SDS011;28637;50.554;7.032;2023-02-07T08:06:14;7.28;;;3.85;;
43014;SDS011;28637;50.554;7.032;2023-02-07T08:11:15;7.20;;;3.57;;
43014;SDS011;28637;50.554;7.032;2023-02-07T08:16:15;6.90;;;3.57;;
43014;SDS011;28637;50.554;7.032;2023-02-07T08:21:16;6.93;;;4.00;;
43014;SDS011;28637;50.554;7.032;2023-02-07T08:26:17;9.17;;;4.40;;
43014;SDS011;28637;50.554;7.032;2023-02-07T08:31:18;6.10;;;3.30;;
43014;SDS011;28637;50.554;7.032;2023-02-07T08:36:19;7.07;;;3.23;;
43014;SDS011;28637;50.554;7.032;2023-02-07T08:41:20;5.37;;;2.73;;
43014;SDS011;28637;50.554;7.032;2023-02-07T08:46:20;8.23;;;4.10;;
43014;SDS011;28637;50.554;7.032;2023-02-07T08:51:21;6.90;;;4.00;;
43014;SDS011;28637;50.554;7.032;2023-02-07T08:56:22;6.68;;;4.25;;
43014;SDS011;28637;50.554;7.032;2023-02-07T09:01:22;12.00;;;6.60;;
43014;SDS011;28637;50.554;7.032;2023-02-07T09:06:24;10.57;;;6.50;;
43014;SDS011;28637;50.554;7.032;2023-02-07T09:16:25;8.85;;;5.00;;
43014;SDS011;28637;50.554;7.032;2023-02-07T09:21:26;9.55;;;5.53;;
43014;SDS011;28637;50.554;7.032;2023-02-07T09:26:27;7.60;;;4.60;;
43014;SDS011;28637;50.554;7.032;2023-02-07T09:31:30;6.28;;;4.32;;
43014;SDS011;28637;50.554;7.032;2023-02-07T09:36:32;8.75;;;4.50;;
43014;SDS011;28637;50.554;7.032;2023-02-07T09:47:00;8.95;;;4.50;;
43014;SDS011;28637;50.554;7.032;2023-02-07T09:52:13;8.77;;;5.03;;
43014;SDS011;28637;50.554;7.032;2023-02-07T09:57:24;8.40;;;4.93;;
43014;SDS011;28637;50.554;7.032;2023-02-07T10:02:41;7.32;;;4.93;;
43014;SDS011;28637;50.554;7.032;2023-02-07T10:07:47;7.80;;;4.87;;
43014;SDS011;28637;50.554;7.032;2023-02-07T10:33:56;42.47;;;19.85;;
43014;SDS011;28637;50.554;7.032;2023-02-07T10:39:03;42.47;;;22.55;;
43014;SDS011;28637;50.554;7.032;2023-02-07T10:44:06;38.22;;;18.45;;
43014;SDS011;28637;50.554;7.032;2023-02-07T10:49:31;36.45;;;19.42;;
43014;SDS011;28637;50.554;7.032;2023-02-07T10:54:47;12.00;;;6.55;;
43014;SDS011;28637;50.554;7.032;2023-02-07T11:10:21;12.02;;;8.55;;
43014;SDS011;28637;50.554;7.032;2023-02-07T11:15:30;15.88;;;9.77;;
43014;SDS011;28637;50.554;7.032;2023-02-07T11:20:38;8.10;;;5.30;;
43014;SDS011;28637;50.554;7.032;2023-02-07T11:25:41;7.20;;;5.30;;
43014;SDS011;28637;50.554;7.032;2023-02-07T11:30:43;7.05;;;4.68;;
43014;SDS011;28637;50.554;7.032;2023-02-07T11:41:24;6.82;;;4.20;;
43014;SDS011;28637;50.554;7.032;2023-02-07T11:46:37;5.75;;;4.50;;
43014;SDS011;28637;50.554;7.032;2023-02-07T11:51:39;6.40;;;4.03;;
43014;SDS011;28637;50.554;7.032;2023-02-07T11:56:50;5.83;;;3.90;;
43014;SDS011;28637;50.554;7.032;2023-02-07T12:01:55;5.72;;;4.13;;
43014;SDS011;28637;50.554;7.032;2023-02-07T12:07:20;5.18;;;3.88;;
43014;SDS011;28637;50.554;7.032;2023-02-07T12:17:48;5.53;;;3.72;;
43014;SDS011;28637;50.554;7.032;2023-02-07T12:23:17;6.18;;;4.00;;
43014;SDS011;28637;50.554;7.032;2023-02-07T12:33:49;6.07;;;4.03;;
43014;SDS011;28637;50.554;7.032;2023-02-07T12:39:12;5.63;;;4.17;;
43014;SDS011;28637;50.554;7.032;2023-02-07T12:44:23;5.85;;;4.47;;
43014;SDS011;28637;50.554;7.032;2023-02-07T13:05:52;7.75;;;4.72;;
43014;SDS011;28637;50.554;7.032;2023-02-07T13:16:27;6.00;;;4.15;;
43014;SDS011;28637;50.554;7.032;2023-02-07T13:21:43;8.55;;;4.63;;
43014;SDS011;28637;50.554;7.032;2023-02-07T13:27:02;6.50;;;4.50;;
43014;SDS011;28637;50.554;7.032;2023-02-07T13:32:07;6.80;;;4.70;;
43014;SDS011;28637;50.554;7.032;2023-02-07T13:37:14;5.72;;;4.53;;
43014;SDS011;28637;50.554;7.032;2023-02-07T13:53:09;5.95;;;4.30;;
43014;SDS011;28637;50.554;7.032;2023-02-07T14:04:11;5.40;;;4.00;;
43014;SDS011;28637;50.554;7.032;2023-02-07T14:09:28;5.90;;;4.57;;
43014;SDS011;28637;50.554;7.032;2023-02-07T14:25:17;4.60;;;4.05;;
43014;SDS011;28637;50.554;7.032;2023-02-07T14:35:36;4.70;;;4.20;;
43014;SDS011;28637;50.554;7.032;2023-02-07T14:50:59;4.07;;;3.67;;
43014;SDS011;28637;50.554;7.032;2023-02-07T14:56:01;5.50;;;3.85;;
43014;SDS011;28637;50.554;7.032;2023-02-07T15:01:10;5.90;;;3.88;;
43014;SDS011;28637;50.554;7.032;2023-02-07T15:06:19;5.15;;;4.40;;
43014;SDS011;28637;50.554;7.032;2023-02-07T15:11:21;5.30;;;3.55;;
43014;SDS011;28637;50.554;7.032;2023-02-07T15:16:26;5.10;;;3.67;;
43014;SDS011;28637;50.554;7.032;2023-02-07T15:21:33;4.72;;;4.20;;
43014;SDS011;28637;50.554;7.032;2023-02-07T15:26:37;6.82;;;5.63;;
43014;SDS011;28637;50.554;7.032;2023-02-07T15:31:39;6.20;;;4.40;;
43014;SDS011;28637;50.554;7.032;2023-02-07T15:36:41;5.30;;;3.80;;
43014;SDS011;28637;50.554;7.032;2023-02-07T15:41:44;15.38;;;11.55;;
43014;SDS011;28637;50.554;7.032;2023-02-07T15:46:51;5.20;;;4.10;;
43014;SDS011;28637;50.554;7.032;2023-02-07T15:51:53;5.30;;;3.78;;
43014;SDS011;28637;50.554;7.032;2023-02-07T15:56:58;24.45;;;10.38;;
43014;SDS011;28637;50.554;7.032;2023-02-07T16:07:06;6.63;;;4.50;;
43014;SDS011;28637;50.554;7.032;2023-02-07T16:17:40;8.73;;;4.63;;
43014;SDS011;28637;50.554;7.032;2023-02-07T16:22:43;7.88;;;5.50;;
43014;SDS011;28637;50.554;7.032;2023-02-07T16:27:46;8.90;;;5.18;;
43014;SDS011;28637;50.554;7.032;2023-02-07T16:32:52;7.47;;;5.47;;
43014;SDS011;28637;50.554;7.032;2023-02-07T16:37:53;7.97;;;4.45;;
43014;SDS011;28637;50.554;7.032;2023-02-07T16:42:54;7.07;;;4.85;;
43014;SDS011;28637;50.554;7.032;2023-02-07T16:47:57;7.30;;;4.47;;
43014;SDS011;28637;50.554;7.032;2023-02-07T16:52:58;5.97;;;3.70;;
43014;SDS011;28637;50.554;7.032;2023-02-07T16:57:59;8.30;;;4.45;;
43014;SDS011;28637;50.554;7.032;2023-02-07T17:03:02;5.47;;;3.40;;
43014;SDS011;28637;50.554;7.032;2023-02-07T17:08:17;5.18;;;3.42;;
43014;SDS011;28637;50.554;7.032;2023-02-07T17:13:26;5.82;;;3.80;;
43014;SDS011;28637;50.554;7.032;2023-02-07T17:18:27;6.17;;;3.83;;
43014;SDS011;28637;50.554;7.032;2023-02-07T17:23:28;13.45;;;4.90;;
43014;SDS011;28637;50.554;7.032;2023-02-07T17:28:28;8.07;;;4.60;;
43014;SDS011;28637;50.554;7.032;2023-02-07T17:33:29;7.68;;;4.22;;
43014;SDS011;28637;50.554;7.032;2023-02-07T17:38:29;9.60;;;5.38;;
43014;SDS011;28637;50.554;7.032;2023-02-07T17:43:30;7.30;;;4.28;;
43014;SDS011;28637;50.554;7.032;2023-02-07T17:48:32;9.82;;;4.10;;
43014;SDS011;28637;50.554;7.032;2023-02-07T17:53:33;11.68;;;6.03;;
43014;SDS011;28637;50.554;7.032;2023-02-07T17:58:33;20.17;;;8.77;;
43014;SDS011;28637;50.554;7.032;2023-02-07T18:03:36;26.00;;;10.13;;
43014;SDS011;28637;50.554;7.032;2023-02-07T18:08:37;9.45;;;4.60;;
43014;SDS011;28637;50.554;7.032;2023-02-07T18:13:38;7.28;;;4.35;;
43014;SDS011;28637;50.554;7.032;2023-02-07T18:18:40;5.70;;;3.70;;
43014;SDS011;28637;50.554;7.032;2023-02-07T18:23:41;8.00;;;4.30;;
43014;SDS011;28637;50.554;7.032;2023-02-07T18:28:42;8.15;;;4.25;;
43014;SDS011;28637;50.554;7.032;2023-02-07T18:33:43;8.45;;;4.45;;
43014;SDS011;28637;50.554;7.032;2023-02-07T18:38:44;12.70;;;5.63;;
43014;SDS011;28637;50.554;7.032;2023-02-07T18:43:45;10.90;;;5.20;;
43014;SDS011;28637;50.554;7.032;2023-02-07T18:48:46;8.75;;;4.75;;
43014;SDS011;28637;50.554;7.032;2023-02-07T18:53:50;12.27;;;4.35;;
43014;SDS011;28637;50.554;7.032;2023-02-07T18:58:53;10.68;;;4.97;;
43014;SDS011;28637;50.554;7.032;2023-02-07T19:03:57;8.18;;;4.20;;
43014;SDS011;28637;50.554;7.032;2023-02-07T19:09:00;10.30;;;4.13;;
43014;SDS011;28637;50.554;7.032;2023-02-07T19:14:01;9.43;;;4.70;;
43014;SDS011;28637;50.554;7.032;2023-02-07T19:19:01;9.07;;;4.38;;
43014;SDS011;28637;50.554;7.032;2023-02-07T19:24:03;9.93;;;5.00;;
43014;SDS011;28637;50.554;7.032;2023-02-07T19:29:06;8.00;;;3.97;;
43014;SDS011;28637;50.554;7.032;2023-02-07T19:34:09;8.02;;;4.60;;
43014;SDS011;28637;50.554;7.032;2023-02-07T19:39:10;8.95;;;5.25;;
43014;SDS011;28637;50.554;7.032;2023-02-07T19:44:11;7.93;;;4.00;;
43014;SDS011;28637;50.554;7.032;2023-02-07T19:49:12;9.03;;;3.80;;
43014;SDS011;28637;50.554;7.032;2023-02-07T19:54:14;7.47;;;3.85;;
43014;SDS011;28637;50.554;7.032;2023-02-07T19:59:15;9.67;;;4.80;;
43014;SDS011;28637;50.554;7.032;2023-02-07T20:04:17;11.13;;;5.68;;
43014;SDS011;28637;50.554;7.032;2023-02-07T20:09:18;8.23;;;4.27;;
43014;SDS011;28637;50.554;7.032;2023-02-07T20:14:19;11.77;;;5.63;;
43014;SDS011;28637;50.554;7.032;2023-02-07T20:19:19;10.02;;;4.70;;
43014;SDS011;28637;50.554;7.032;2023-02-07T20:24:21;11.77;;;4.53;;
43014;SDS011;28637;50.554;7.032;2023-02-07T20:29:21;8.10;;;4.63;;
43014;SDS011;28637;50.554;7.032;2023-02-07T20:34:22;9.90;;;4.77;;
43014;SDS011;28637;50.554;7.032;2023-02-07T20:39:23;10.02;;;4.55;;
43014;SDS011;28637;50.554;7.032;2023-02-07T20:44:25;9.05;;;4.25;;
43014;SDS011;28637;50.554;7.032;2023-02-07T20:49:29;8.67;;;4.67;;
43014;SDS011;28637;50.554;7.032;2023-02-07T20:54:30;9.18;;;4.60;;
43014;SDS011;28637;50.554;7.032;2023-02-07T20:59:31;9.47;;;4.40;;
43014;SDS011;28637;50.554;7.032;2023-02-07T21:04:32;8.73;;;4.50;;
43014;SDS011;28637;50.554;7.032;2023-02-07T21:09:35;7.70;;;3.90;;
43014;SDS011;28637;50.554;7.032;2023-02-07T21:14:36;8.83;;;4.13;;
43014;SDS011;28637;50.554;7.032;2023-02-07T21:19:36;8.67;;;4.30;;
43014;SDS011;28637;50.554;7.032;2023-02-07T21:24:38;12.93;;;5.10;;
43014;SDS011;28637;50.554;7.032;2023-02-07T21:29:39;9.33;;;5.30;;
43014;SDS011;28637;50.554;7.032;2023-02-07T21:34:40;11.00;;;5.40;;
43014;SDS011;28637;50.554;7.032;2023-02-07T21:39:40;12.73;;;6.30;;
43014;SDS011;28637;50.554;7.032;2023-02-07T21:44:41;10.87;;;5.20;;
43014;SDS011;28637;50.554;7.032;2023-02-07T21:49:42;9.27;;;5.10;;
43014;SDS011;28637;50.554;7.032;2023-02-07T21:54:43;8.93;;;4.15;;
43014;SDS011;28637;50.554;7.032;2023-02-07T21:59:44;9.00;;;4.27;;
43014;SDS011;28637;50.554;7.032;2023-02-07T22:04:46;13.67;;;5.30;;
43014;SDS011;28637;50.554;7.032;2023-02-07T22:09:48;8.63;;;4.40;;
43014;SDS011;28637;50.554;7.032;2023-02-07T22:14:50;9.25;;;4.50;;
43014;SDS011;28637;50.554;7.032;2023-02-07T22:19:51;12.37;;;5.00;;
43014;SDS011;28637;50.554;7.032;2023-02-07T22:24:52;8.87;;;4.70;;
43014;SDS011;28637;50.554;7.032;2023-02-07T22:29:52;11.33;;;5.40;;
43014;SDS011;28637;50.554;7.032;2023-02-07T22:34:53;9.70;;;4.63;;
43014;SDS011;28637;50.554;7.032;2023-02-07T22:39:53;8.87;;;4.93;;
43014;SDS011;28637;50.554;7.032;2023-02-07T22:44:54;11.40;;;4.87;;
43014;SDS011;28637;50.554;7.032;2023-02-07T22:49:55;10.17;;;4.60;;
43014;SDS011;28637;50.554;7.032;2023-02-07T22:54:56;12.03;;;5.00;;
43014;SDS011;28637;50.554;7.032;2023-02-07T22:59:56;10.80;;;4.90;;
43014;SDS011;28637;50.554;7.032;2023-02-07T23:04:59;15.25;;;6.13;;
43014;SDS011;28637;50.554;7.032;2023-02-07T23:10:00;13.00;;;6.13;;
43014;SDS011;28637;50.554;7.032;2023-02-07T23:15:02;8.65;;;4.63;;
43014;SDS011;28637;50.554;7.032;2023-02-07T23:20:03;8.60;;;4.15;;
43014;SDS011;28637;50.554;7.032;2023-02-07T23:25:05;9.82;;;4.38;;
43014;SDS011;28637;50.554;7.032;2023-02-07T23:30:07;10.27;;;4.43;;
43014;SDS011;28637;50.554;7.032;2023-02-07T23:40:09;11.48;;;5.43;;
43014;SDS011;28637;50.554;7.032;2023-02-07T23:45:10;9.70;;;4.70;;
43014;SDS011;28637;50.554;7.032;2023-02-07T23:50:11;11.03;;;5.37;;
43014;SDS011;28637;50.554;7.032;2023-02-07T23:55:11;14.03;;;4.90;;
